Westport, Oklahoma
Current Conditions -  °F | °C
As of 5:55 PM on Wednesday 22 Oct 2014 (Local Time) from KOWP Reporting Station
Clear Clear  
Wind Chill: 78°   Ceiling: Unl
Heat Index: 79°   Visibility: 10mi
Dew Point: 58°   Wind: 6mph
Humidity: 50%   Direction: 170°S
Pressure: 30.09"   Gusts: NA
Location:  36.248°N, 96.4789°W
Report Text: KOWP 222255Z AUTO 17005KT 10SM CLR 26/14 A3009 RMK AO2 T02550143
Loading
Personal Weather Stations






























Interactive Weather Map New forecast layout! Learn more

10-Day Weather Forecast

Advertisements
Track Severe Weather on mobile